Time;durP1;ratioP1;P1;durP2;ratioP2;P2;SDS_P1;SDS_P2;PMS_P1;PMS_P2;Temp;Humidity;BMP_temperature;BMP_pressure;BME280_temperature;BME280_humidity;BME280_pressure;Samples;Min_cycle;Max_cycle;Signal;HPM_P1;HPM_P2
2022/11/04 00:01:23;;;;;;;15.38;10.73;;;;;;;;;;5111602;28;20051;-71
2022/11/04 00:03:49;;;;;;;11.55;9.57;;;;;;;;;;5112333;28;20070;-71
2022/11/04 00:06:15;;;;;;;11.45;9.75;;;;;;;;;;5110471;28;20497;-70
2022/11/04 00:08:41;;;;;;;13.98;10.70;;;;;;;;;;5112748;28;20083;-70
2022/11/04 00:13:53;;;;;;;12.68;9.63;;;;;;;;;;5110931;28;20051;-70
2022/11/04 00:19:04;;;;;;;10.57;7.72;;;;;;;;;;5103870;28;20043;-70
2022/11/04 00:29:44;;;;;;;8.10;5.35;;;;;;;;;;5112448;28;20036;-71
2022/11/04 00:34:55;;;;;;;5.95;3.78;;;;;;;;;;5110653;28;20043;-72
2022/11/04 00:37:21;;;;;;;5.55;2.53;;;;;;;;;;5109853;28;20158;-70
2022/11/04 00:39:47;;;;;;;3.83;1.80;;;;;;;;;;5112200;28;20173;-70
2022/11/04 00:42:13;;;;;;;4.30;1.50;;;;;;;;;;5112827;28;20092;-70
2022/11/04 00:44:39;;;;;;;3.03;1.30;;;;;;;;;;5112701;28;20519;-70
2022/11/04 00:47:05;;;;;;;2.92;1.33;;;;;;;;;;5112712;28;20114;-70
2022/11/04 00:49:31;;;;;;;4.75;1.33;;;;;;;;;;5112515;28;20027;-69
2022/11/04 00:51:57;;;;;;;4.50;1.60;;;;;;;;;;5111115;28;20040;-70
2022/11/04 00:54:23;;;;;;;3.15;1.50;;;;;;;;;;5111636;28;20100;-70
2022/11/04 00:56:49;;;;;;;4.45;1.63;;;;;;;;;;5112473;28;20118;-71
2022/11/04 00:59:15;;;;;;;4.43;1.48;;;;;;;;;;5112313;28;20415;-71
2022/11/04 01:01:41;;;;;;;4.38;1.55;;;;;;;;;;5112458;28;20071;-71
2022/11/04 01:04:08;;;;;;;4.60;1.58;;;;;;;;;;5110604;28;20140;-70
2022/11/04 01:06:34;;;;;;;5.28;1.65;;;;;;;;;;5111187;28;20050;-71
2022/11/04 01:09:02;;;;;;;3.83;1.50;;;;;;;;;;5093909;28;20035;-71
2022/11/04 01:11:28;;;;;;;3.05;1.25;;;;;;;;;;5111975;28;20411;-71
2022/11/04 01:13:54;;;;;;;3.88;1.20;;;;;;;;;;5110468;28;20050;-70
2022/11/04 01:16:21;;;;;;;5.50;1.40;;;;;;;;;;5111698;28;20067;-70
2022/11/04 01:18:47;;;;;;;3.28;1.00;;;;;;;;;;5112554;28;20499;-70
2022/11/04 01:21:14;;;;;;;4.40;0.90;;;;;;;;;;5112330;28;20497;-71
2022/11/04 01:23:41;;;;;;;2.40;0.85;;;;;;;;;;5111622;28;20531;-71
2022/11/04 01:26:07;;;;;;;2.45;0.52;;;;;;;;;;5110578;28;20043;-70
2022/11/04 01:28:33;;;;;;;1.75;0.70;;;;;;;;;;5098172;28;20047;-71
2022/11/04 01:30:59;;;;;;;3.03;0.70;;;;;;;;;;5115473;28;20044;-70
2022/11/04 01:33:25;;;;;;;2.97;0.80;;;;;;;;;;5116767;28;20052;-71
2022/11/04 01:35:51;;;;;;;1.48;0.70;;;;;;;;;;5113956;28;20039;-71
2022/11/04 01:38:18;;;;;;;3.22;0.70;;;;;;;;;;5111944;28;20040;-71
2022/11/04 01:40:44;;;;;;;3.38;0.68;;;;;;;;;;5095438;28;20397;-71
2022/11/04 01:43:17;;;;;;;2.47;0.77;;;;;;;;;;5114259;28;20047;-71
2022/11/04 01:45:44;;;;;;;4.10;1.00;;;;;;;;;;5114692;28;20040;-71
2022/11/04 01:48:15;;;;;;;4.20;0.80;;;;;;;;;;5115175;28;20069;-71
2022/11/04 01:50:41;;;;;;;3.72;1.10;;;;;;;;;;5113110;28;20050;-72
2022/11/04 01:53:14;;;;;;;4.07;0.88;;;;;;;;;;5116280;28;20109;-71
2022/11/04 01:55:41;;;;;;;4.65;1.20;;;;;;;;;;5115920;28;20048;-71
2022/11/04 01:58:10;;;;;;;4.28;0.95;;;;;;;;;;5114716;28;20506;-71
2022/11/04 02:00:40;;;;;;;3.95;0.95;;;;;;;;;;5114856;28;20055;-71
2022/11/04 02:03:08;;;;;;;6.13;0.93;;;;;;;;;;5113788;28;20039;-71
2022/11/04 02:05:34;;;;;;;3.03;1.00;;;;;;;;;;5113989;28;20106;-71
2022/11/04 02:08:02;;;;;;;2.72;0.85;;;;;;;;;;5114741;28;20044;-70
2022/11/04 02:10:29;;;;;;;4.70;1.10;;;;;;;;;;5114909;28;20494;-71
2022/11/04 02:12:56;;;;;;;4.78;1.00;;;;;;;;;;5115154;28;20047;-72
2022/11/04 02:15:32;;;;;;;5.50;1.05;;;;;;;;;;5113512;28;20047;-70
2022/11/04 02:18:07;;;;;;;4.43;1.15;;;;;;;;;;5097616;28;20055;-69
2022/11/04 02:20:55;;;;;;;3.72;1.25;;;;;;;;;;5115039;28;20035;-71
2022/11/04 02:23:29;;;;;;;5.78;1.20;;;;;;;;;;5114761;28;20051;-71
2022/11/04 02:26:07;;;;;;;4.07;1.23;;;;;;;;;;5115692;28;20114;-69
2022/11/04 02:28:43;;;;;;;4.57;1.20;;;;;;;;;;5113597;28;20048;-69
2022/11/04 02:31:30;;;;;;;5.22;1.52;;;;;;;;;;5114996;28;20036;-69
2022/11/04 02:34:10;;;;;;;4.25;1.10;;;;;;;;;;5098989;28;20189;-71
2022/11/04 02:36:36;;;;;;;8.27;1.30;;;;;;;;;;5114363;28;20046;-70
2022/11/04 02:39:05;;;;;;;3.22;1.00;;;;;;;;;;5112922;28;20035;-70
2022/11/04 02:41:41;;;;;;;3.97;1.17;;;;;;;;;;5114408;28;20138;-70
2022/11/04 02:44:16;;;;;;;6.45;1.23;;;;;;;;;;5114855;28;20042;-70
2022/11/04 02:46:56;;;;;;;5.55;1.30;;;;;;;;;;5112750;28;20521;-70
2022/11/04 02:49:40;;;;;;;4.78;1.27;;;;;;;;;;5113622;28;20062;-69
2022/11/04 02:52:08;;;;;;;3.78;1.23;;;;;;;;;;5095761;28;20505;-70
2022/11/04 02:54:37;;;;;;;2.95;0.90;;;;;;;;;;5114046;28;20039;-70
2022/11/04 02:57:06;;;;;;;4.30;0.98;;;;;;;;;;5110854;28;20585;-70
2022/11/04 02:59:35;;;;;;;3.70;0.80;;;;;;;;;;5113729;28;20047;-70
2022/11/04 03:02:03;;;;;;;3.60;0.90;;;;;;;;;;5112476;28;20044;-70
2022/11/04 03:04:31;;;;;;;3.22;0.80;;;;;;;;;;5111489;28;20039;-70
2022/11/04 03:06:58;;;;;;;2.35;0.70;;;;;;;;;;5094649;28;20044;-70
2022/11/04 03:09:25;;;;;;;6.05;0.80;;;;;;;;;;5114575;28;20514;-70
2022/11/04 03:11:55;;;;;;;2.10;0.63;;;;;;;;;;5113103;28;20050;-71
2022/11/04 03:14:26;;;;;;;2.75;0.80;;;;;;;;;;5114207;28;20046;-71
2022/11/04 03:16:52;;;;;;;;;;;;;;;;;;5114584;28;20040;-70
2022/11/04 03:19:18;;;;;;;2.65;0.70;;;;;;;;;;5112870;28;19969;-70
2022/11/04 03:21:51;;;;;;;4.25;0.80;;;;;;;;;;5114561;28;20040;-69
2022/11/04 03:24:17;;;;;;;5.10;0.80;;;;;;;;;;5113149;28;20040;-70
2022/11/04 03:26:43;;;;;;;2.15;0.73;;;;;;;;;;5114084;28;20126;-70
2022/11/04 03:29:27;;;;;;;5.47;1.05;;;;;;;;;;5112167;28;20123;-71
2022/11/04 03:32:02;;;;;;;4.30;1.15;;;;;;;;;;5082187;28;20182;-72
2022/11/04 03:34:28;;;;;;;5.03;1.55;;;;;;;;;;5111958;28;20039;-71
2022/11/04 03:36:54;;;;;;;5.78;1.50;;;;;;;;;;5111804;28;20038;-71
2022/11/04 03:39:20;;;;;;;4.25;1.67;;;;;;;;;;5111729;28;20078;-71
2022/11/04 03:41:49;;;;;;;5.45;2.20;;;;;;;;;;5094549;28;20450;-70
2022/11/04 03:44:15;;;;;;;6.25;1.80;;;;;;;;;;5114022;28;20042;-69
2022/11/04 03:46:41;;;;;;;5.85;1.70;;;;;;;;;;5112930;28;20043;-71
2022/11/04 03:49:08;;;;;;;5.20;1.80;;;;;;;;;;5113607;28;20050;-71
2022/11/04 03:51:34;;;;;;;6.75;2.10;;;;;;;;;;5111370;28;20042;-72
2022/11/04 03:54:00;;;;;;;4.10;1.65;;;;;;;;;;5114064;28;20044;-71
2022/11/04 03:56:32;;;;;;;5.97;1.80;;;;;;;;;;5112286;28;20425;-71
2022/11/04 03:59:12;;;;;;;6.03;1.55;;;;;;;;;;5112373;28;20039;-72
2022/11/04 04:01:56;;;;;;;4.28;1.48;;;;;;;;;;5113777;28;20370;-70
2022/11/04 04:04:29;;;;;;;3.75;1.40;;;;;;;;;;5112664;28;20477;-70
2022/11/04 04:07:03;;;;;;;3.78;1.30;;;;;;;;;;5111603;28;20078;-70
2022/11/04 04:09:38;;;;;;;5.15;1.20;;;;;;;;;;5092787;28;20401;-71
2022/11/04 04:12:13;;;;;;;4.93;1.30;;;;;;;;;;5111476;28;20043;-71
2022/11/04 04:14:43;;;;;;;3.08;0.90;;;;;;;;;;5093858;28;21002;-71
2022/11/04 04:17:32;;;;;;;3.22;1.00;;;;;;;;;;5091847;28;20118;-70
2022/11/04 04:20:00;;;;;;;3.88;1.00;;;;;;;;;;5099043;28;20052;-70
2022/11/04 04:22:28;;;;;;;3.35;0.88;;;;;;;;;;5114017;28;20039;-71
2022/11/04 04:27:41;;;;;;;5.13;1.10;;;;;;;;;;5112452;28;20044;-70
2022/11/04 04:30:09;;;;;;;1.63;0.40;;;;;;;;;;5110956;28;20050;-72
2022/11/04 04:32:39;;;;;;;2.72;0.60;;;;;;;;;;5111782;28;20040;-72
2022/11/04 04:37:51;;;;;;;2.83;0.80;;;;;;;;;;5113775;28;20043;-70
2022/11/04 04:45:53;;;;;;;2.28;0.60;;;;;;;;;;5112030;28;20409;-71
2022/11/04 04:48:19;;;;;;;2.88;0.50;;;;;;;;;;5096314;28;20513;-70
2022/11/04 04:50:47;;;;;;;4.70;0.73;;;;;;;;;;5094739;28;20039;-71
2022/11/04 04:53:13;;;;;;;1.40;0.50;;;;;;;;;;5111050;28;20122;-71
2022/11/04 04:55:39;;;;;;;4.25;0.80;;;;;;;;;;5112221;28;20043;-71
2022/11/04 04:58:06;;;;;;;5.70;0.80;;;;;;;;;;5111499;28;20489;-71
2022/11/04 05:00:32;;;;;;;6.65;0.80;;;;;;;;;;5099952;28;20056;-71
2022/11/04 05:02:58;;;;;;;3.55;0.60;;;;;;;;;;5104610;28;20058;-72
2022/11/04 05:05:24;;;;;;;2.90;0.50;;;;;;;;;;5110571;28;20035;-71
2022/11/04 05:07:50;;;;;;;2.42;0.45;;;;;;;;;;5111413;28;20047;-71
2022/11/04 05:10:17;;;;;;;1.70;0.50;;;;;;;;;;5111281;28;20054;-71
2022/11/04 05:15:28;;;;;;;1.52;0.50;;;;;;;;;;5112115;28;20044;-71
2022/11/04 05:17:58;;;;;;;2.60;0.70;;;;;;;;;;5112334;28;20382;-71
2022/11/04 05:20:24;;;;;;;2.97;0.70;;;;;;;;;;5110918;28;20040;-71
2022/11/04 05:22:50;;;;;;;3.35;0.80;;;;;;;;;;5110787;28;20049;-71
2022/11/04 05:25:17;;;;;;;2.00;0.70;;;;;;;;;;5110452;28;20040;-71
2022/11/04 05:27:43;;;;;;;1.90;0.60;;;;;;;;;;5109521;28;20084;-70
2022/11/04 05:30:09;;;;;;;3.00;0.65;;;;;;;;;;5111206;28;20051;-71
2022/11/04 05:32:35;;;;;;;2.72;0.52;;;;;;;;;;5091541;28;20047;-71
2022/11/04 05:35:01;;;;;;;2.45;0.60;;;;;;;;;;5105986;28;20040;-71
2022/11/04 05:37:27;;;;;;;2.05;0.60;;;;;;;;;;5092892;28;20093;-71
2022/11/04 05:39:53;;;;;;;6.22;0.68;;;;;;;;;;5111738;28;20048;-71
2022/11/04 05:42:20;;;;;;;3.13;0.65;;;;;;;;;;5111940;28;20047;-71
2022/11/04 05:44:46;;;;;;;2.72;0.68;;;;;;;;;;5109749;28;20047;-71
2022/11/04 05:47:11;;;;;;;3.67;0.70;;;;;;;;;;5112301;28;20043;-71
2022/11/04 05:49:38;;;;;;;2.42;0.55;;;;;;;;;;5077673;28;20390;-72
2022/11/04 05:52:04;;;;;;;2.78;0.60;;;;;;;;;;5110284;28;20386;-71
2022/11/04 05:54:30;;;;;;;1.67;0.60;;;;;;;;;;5110126;28;20050;-72
2022/11/04 05:56:56;;;;;;;4.80;0.60;;;;;;;;;;5111257;28;20119;-72
2022/11/04 05:59:22;;;;;;;2.17;0.50;;;;;;;;;;5108441;28;22202;-72
2022/11/04 06:01:49;;;;;;;2.70;0.60;;;;;;;;;;5111212;28;20044;-71
2022/11/04 06:04:16;;;;;;;2.58;0.70;;;;;;;;;;5094165;28;20054;-71
2022/11/04 06:06:43;;;;;;;2.78;0.55;;;;;;;;;;5111306;28;20048;-71
2022/11/04 06:09:09;;;;;;;3.83;0.60;;;;;;;;;;5112027;28;20528;-72
2022/11/04 06:11:36;;;;;;;3.22;0.75;;;;;;;;;;5110446;28;20059;-71
2022/11/04 06:14:02;;;;;;;2.28;0.60;;;;;;;;;;5111365;28;20039;-71
2022/11/04 06:16:28;;;;;;;3.20;0.68;;;;;;;;;;5112922;28;20512;-71
2022/11/04 06:18:54;;;;;;;4.13;0.60;;;;;;;;;;5107828;28;20401;-71
2022/11/04 06:21:24;;;;;;;2.47;0.70;;;;;;;;;;5107871;28;20063;-71
2022/11/04 06:23:50;;;;;;;3.65;0.70;;;;;;;;;;5106766;28;20040;-71
2022/11/04 06:26:16;;;;;;;3.58;0.85;;;;;;;;;;5107176;28;20039;-70
2022/11/04 06:28:42;;;;;;;3.17;0.70;;;;;;;;;;5106968;28;21660;-70
2022/11/04 06:31:09;;;;;;;2.78;0.77;;;;;;;;;;5105990;28;20047;-70
2022/11/04 06:33:35;;;;;;;5.68;1.60;;;;;;;;;;5107549;28;20047;-71
2022/11/04 06:36:02;;;;;;;6.25;1.90;;;;;;;;;;5100948;28;21468;-70
2022/11/04 06:38:29;;;;;;;4.28;1.70;;;;;;;;;;5100164;28;20040;-70
2022/11/04 06:40:56;;;;;;;5.20;2.10;;;;;;;;;;5105309;28;20397;-70
2022/11/04 06:43:22;;;;;;;6.82;1.80;;;;;;;;;;5108771;28;20183;-71
2022/11/04 06:45:58;;;;;;;3.35;1.25;;;;;;;;;;5109966;28;20036;-70
2022/11/04 06:48:24;;;;;;;3.85;1.60;;;;;;;;;;5111849;28;20513;-71
2022/11/04 06:50:50;;;;;;;4.57;1.55;;;;;;;;;;5114849;28;20082;-71
2022/11/04 06:53:16;;;;;;;5.18;1.20;;;;;;;;;;5114894;28;20374;-72
2022/11/04 06:55:42;;;;;;;5.80;1.60;;;;;;;;;;5114876;28;20092;-72
2022/11/04 06:58:09;;;;;;;7.22;1.90;;;;;;;;;;5114467;28;20083;-71
2022/11/04 07:00:35;;;;;;;6.00;1.80;;;;;;;;;;5114399;28;20441;-71
2022/11/04 07:03:01;;;;;;;6.22;2.40;;;;;;;;;;5095843;28;20077;-72
2022/11/04 07:05:28;;;;;;;6.47;2.33;;;;;;;;;;5114516;28;20043;-72
2022/11/04 07:07:54;;;;;;;6.43;2.10;;;;;;;;;;5114834;28;20090;-71
2022/11/04 07:10:20;;;;;;;5.75;2.58;;;;;;;;;;5114372;28;20455;-72
2022/11/04 07:12:46;;;;;;;5.38;1.58;;;;;;;;;;5114321;28;20051;-71
2022/11/04 07:15:13;;;;;;;6.10;2.08;;;;;;;;;;5108650;28;20044;-71
2022/11/04 07:17:39;;;;;;;7.45;2.03;;;;;;;;;;5113742;28;20040;-71
2022/11/04 07:20:05;;;;;;;8.65;2.78;;;;;;;;;;5113342;28;20054;-72
2022/11/04 07:22:31;;;;;;;5.05;2.22;;;;;;;;;;5113174;28;20055;-71
2022/11/04 07:24:57;;;;;;;4.28;1.58;;;;;;;;;;5112362;28;20038;-70
2022/11/04 07:27:23;;;;;;;6.40;1.70;;;;;;;;;;5110014;28;20047;-71
2022/11/04 07:29:49;;;;;;;3.50;1.33;;;;;;;;;;5101650;28;20412;-71
2022/11/04 07:32:15;;;;;;;4.53;1.50;;;;;;;;;;5110649;28;20489;-70
2022/11/04 07:34:41;;;;;;;4.13;1.40;;;;;;;;;;5101560;28;20050;-71
2022/11/04 07:37:07;;;;;;;4.85;1.40;;;;;;;;;;5110476;28;20043;-71
2022/11/04 07:39:33;;;;;;;5.00;1.52;;;;;;;;;;5111079;28;20075;-71
2022/11/04 07:41:59;;;;;;;6.15;1.60;;;;;;;;;;5113058;28;20065;-71
2022/11/04 07:44:25;;;;;;;3.75;1.25;;;;;;;;;;5113205;28;20040;-71
2022/11/04 07:46:51;;;;;;;3.38;1.30;;;;;;;;;;5094137;28;20040;-71
2022/11/04 07:49:17;;;;;;;4.63;1.30;;;;;;;;;;5112524;28;20043;-71
2022/11/04 07:51:43;;;;;;;6.60;1.30;;;;;;;;;;5111383;28;20476;-72
2022/11/04 07:54:09;;;;;;;4.47;1.50;;;;;;;;;;5109808;28;20621;-69
2022/11/04 07:56:35;;;;;;;5.38;1.50;;;;;;;;;;5110977;28;20047;-72
2022/11/04 07:59:04;;;;;;;4.03;1.58;;;;;;;;;;5111980;28;20048;-70
2022/11/04 08:01:30;;;;;;;4.20;1.58;;;;;;;;;;5110479;28;20055;-70
2022/11/04 08:03:56;;;;;;;5.95;1.75;;;;;;;;;;5110972;28;20529;-71
2022/11/04 08:06:22;;;;;;;5.53;2.40;;;;;;;;;;5093234;28;20035;-71
2022/11/04 08:08:48;;;;;;;8.02;2.53;;;;;;;;;;5109299;28;20500;-71
2022/11/04 08:11:16;;;;;;;7.15;2.25;;;;;;;;;;5110309;28;20050;-71
2022/11/04 08:13:42;;;;;;;5.80;2.20;;;;;;;;;;5109990;28;20052;-71
2022/11/04 08:16:12;;;;;;;7.88;2.42;;;;;;;;;;5112846;28;20097;-71
2022/11/04 08:18:38;;;;;;;5.40;2.40;;;;;;;;;;5112209;28;20046;-71
2022/11/04 08:21:04;;;;;;;6.10;2.78;;;;;;;;;;5111259;28;20046;-71
2022/11/04 08:23:31;;;;;;;5.43;2.72;;;;;;;;;;5111705;28;20046;-70
2022/11/04 08:25:57;;;;;;;7.10;3.72;;;;;;;;;;5111821;28;20165;-71
2022/11/04 08:28:23;;;;;;;5.50;2.90;;;;;;;;;;5094522;28;20047;-71
2022/11/04 08:30:57;;;;;;;7.60;3.08;;;;;;;;;;5112470;28;20047;-72
2022/11/04 08:33:24;;;;;;;6.75;3.05;;;;;;;;;;5112256;28;20048;-71
2022/11/04 08:35:50;;;;;;;8.55;3.53;;;;;;;;;;5112087;28;20091;-71
2022/11/04 08:38:16;;;;;;;8.98;3.65;;;;;;;;;;5109239;28;20051;-72
2022/11/04 08:40:42;;;;;;;6.47;3.30;;;;;;;;;;5111519;28;20066;-71
2022/11/04 08:43:08;;;;;;;7.78;3.40;;;;;;;;;;5111660;28;20043;-71
2022/11/04 08:45:45;;;;;;;7.25;3.30;;;;;;;;;;5110977;28;20058;-73
2022/11/04 08:48:12;;;;;;;9.27;3.30;;;;;;;;;;5108655;28;20051;-71
2022/11/04 08:50:38;;;;;;;11.68;3.40;;;;;;;;;;5110943;28;20085;-71
2022/11/04 08:53:05;;;;;;;8.45;3.42;;;;;;;;;;5110988;28;20466;-72
2022/11/04 08:55:31;;;;;;;9.07;3.85;;;;;;;;;;5111887;28;20058;-70
2022/11/04 08:57:58;;;;;;;6.20;3.00;;;;;;;;;;5108270;28;20039;-71
2022/11/04 09:00:24;;;;;;;111.95;6.65;;;;;;;;;;5093166;28;20113;-71
2022/11/04 09:02:50;;;;;;;8.18;3.53;;;;;;;;;;5111232;28;20055;-71
2022/11/04 09:05:17;;;;;;;8.30;3.13;;;;;;;;;;5111028;28;20128;-72
2022/11/04 09:07:43;;;;;;;8.23;3.50;;;;;;;;;;5110060;28;20043;-72
2022/11/04 09:10:10;;;;;;;12.75;3.50;;;;;;;;;;5112959;28;20076;-71
2022/11/04 09:12:36;;;;;;;18.13;4.03;;;;;;;;;;5111326;28;20036;-71
2022/11/04 09:15:04;;;;;;;10.77;4.32;;;;;;;;;;5112028;28;20071;-72
2022/11/04 09:17:30;;;;;;;9.45;4.38;;;;;;;;;;5107911;28;20051;-72
2022/11/04 09:19:56;;;;;;;9.25;4.40;;;;;;;;;;5110226;28;20075;-71
2022/11/04 09:22:23;;;;;;;11.23;4.15;;;;;;;;;;5111672;28;20563;-71
2022/11/04 09:24:49;;;;;;;8.63;4.47;;;;;;;;;;5110843;28;20493;-72
2022/11/04 09:27:15;;;;;;;15.88;3.85;;;;;;;;;;5111635;28;20050;-70
2022/11/04 09:29:41;;;;;;;7.68;3.83;;;;;;;;;;5111733;28;20043;-70
2022/11/04 09:32:07;;;;;;;12.82;3.55;;;;;;;;;;5109758;28;20112;-71
2022/11/04 09:34:34;;;;;;;10.65;4.03;;;;;;;;;;5105674;28;20058;-72
2022/11/04 09:37:00;;;;;;;7.55;3.63;;;;;;;;;;5110627;28;20044;-71
2022/11/04 09:39:26;;;;;;;9.68;4.55;;;;;;;;;;5109928;28;20044;-72
2022/11/04 09:42:11;;;;;;;10.45;4.00;;;;;;;;;;5110471;28;20086;-71
2022/11/04 09:44:43;;;;;;;9.35;3.95;;;;;;;;;;5110998;28;20401;-72
2022/11/04 09:47:11;;;;;;;9.65;3.88;;;;;;;;;;5110788;28;20132;-71
2022/11/04 09:49:39;;;;;;;7.07;3.92;;;;;;;;;;5112509;28;20086;-71
2022/11/04 09:52:08;;;;;;;7.95;4.32;;;;;;;;;;5115219;28;20048;-72
2022/11/04 09:54:52;;;;;;;9.18;3.83;;;;;;;;;;5094937;28;20093;-72
2022/11/04 09:57:19;;;;;;;8.30;4.38;;;;;;;;;;5115856;28;20044;-71
2022/11/04 09:59:46;;;;;;;8.73;4.97;;;;;;;;;;5096885;28;20043;-72
2022/11/04 10:02:30;;;;;;;8.00;4.82;;;;;;;;;;5115555;28;20056;-72
2022/11/04 10:05:01;;;;;;;9.30;5.10;;;;;;;;;;5115387;28;20047;-71
2022/11/04 10:07:42;;;;;;;10.07;5.20;;;;;;;;;;5114428;28;20051;-71
2022/11/04 10:10:14;;;;;;;12.85;4.57;;;;;;;;;;5094707;28;20087;-71
2022/11/04 10:12:53;;;;;;;9.10;5.47;;;;;;;;;;5108798;28;20405;-71
2022/11/04 10:15:38;;;;;;;9.10;5.20;;;;;;;;;;5115004;28;20100;-71
2022/11/04 10:18:09;;;;;;;12.07;6.00;;;;;;;;;;5108783;28;20043;-71
2022/11/04 10:20:35;;;;;;;10.52;5.70;;;;;;;;;;5114985;28;20481;-71
2022/11/04 10:23:05;;;;;;;9.93;5.90;;;;;;;;;;5115659;28;20122;-72
2022/11/04 10:25:37;;;;;;;10.70;6.78;;;;;;;;;;5114418;28;20036;-72
2022/11/04 10:28:05;;;;;;;13.77;7.22;;;;;;;;;;5114750;28;20047;-71
2022/11/04 10:30:32;;;;;;;15.40;8.20;;;;;;;;;;5113323;28;20039;-72
2022/11/04 10:33:12;;;;;;;11.23;7.60;;;;;;;;;;5108906;28;20054;-72
2022/11/04 10:35:41;;;;;;;11.85;7.65;;;;;;;;;;5111704;28;20047;-72
2022/11/04 10:38:27;;;;;;;12.18;6.78;;;;;;;;;;5114381;28;20054;-71
2022/11/04 10:40:54;;;;;;;13.27;8.07;;;;;;;;;;5087951;28;20047;-72
2022/11/04 10:43:46;;;;;;;14.45;9.27;;;;;;;;;;5113653;28;20121;-72
2022/11/04 10:46:12;;;;;;;14.25;8.77;;;;;;;;;;5109650;28;20043;-72
2022/11/04 10:48:43;;;;;;;13.57;9.68;;;;;;;;;;5113972;28;20043;-71
2022/11/04 10:51:09;;;;;;;14.43;9.70;;;;;;;;;;5115101;28;20100;-72
2022/11/04 10:53:36;;;;;;;13.57;10.35;;;;;;;;;;5112135;28;20039;-72
2022/11/04 10:56:17;;;;;;;13.18;9.40;;;;;;;;;;5096835;28;20566;-72
2022/11/04 10:58:45;;;;;;;14.35;9.68;;;;;;;;;;5097128;28;20112;-71
2022/11/04 11:01:30;;;;;;;13.13;8.50;;;;;;;;;;5109261;28;20060;-72
2022/11/04 11:03:56;;;;;;;13.07;8.75;;;;;;;;;;5097329;28;20051;-72
2022/11/04 11:06:22;;;;;;;12.38;8.90;;;;;;;;;;5115518;28;20051;-71
2022/11/04 11:08:48;;;;;;;11.60;7.10;;;;;;;;;;5114850;28;20136;-72
2022/11/04 11:11:15;;;;;;;12.13;7.55;;;;;;;;;;5091875;28;20561;-71
2022/11/04 11:13:42;;;;;;;12.45;7.85;;;;;;;;;;5111688;28;20035;-70
2022/11/04 11:16:27;;;;;;;13.63;8.02;;;;;;;;;;5113787;28;20520;-71
2022/11/04 11:19:11;;;;;;;14.02;8.48;;;;;;;;;;5082594;28;20047;-71
2022/11/04 11:21:50;;;;;;;13.93;8.80;;;;;;;;;;5075877;28;20112;-71
2022/11/04 11:24:26;;;;;;;13.13;7.85;;;;;;;;;;5101099;28;20079;-71
2022/11/04 11:26:54;;;;;;;14.40;8.65;;;;;;;;;;5114004;28;20047;-72
2022/11/04 11:29:34;;;;;;;13.13;8.00;;;;;;;;;;5117125;28;20039;-72
2022/11/04 11:32:00;;;;;;;10.63;7.10;;;;;;;;;;5114399;28;20040;-72
2022/11/04 11:34:32;;;;;;;12.40;7.68;;;;;;;;;;5109008;28;20139;-72
2022/11/04 11:37:02;;;;;;;10.88;7.80;;;;;;;;;;5111692;28;20513;-72
2022/11/04 11:39:30;;;;;;;10.68;7.38;;;;;;;;;;5112927;28;20448;-72
2022/11/04 11:41:58;;;;;;;12.48;8.40;;;;;;;;;;5112918;28;20024;-71
2022/11/04 11:44:35;;;;;;;13.93;7.93;;;;;;;;;;5112964;28;20039;-72
2022/11/04 11:47:03;;;;;;;15.20;7.40;;;;;;;;;;5111043;28;20100;-71
2022/11/04 11:49:31;;;;;;;13.38;6.82;;;;;;;;;;5104459;28;20056;-72
2022/11/04 11:52:16;;;;;;;11.13;6.85;;;;;;;;;;5107094;28;20043;-71
2022/11/04 11:54:45;;;;;;;12.40;7.75;;;;;;;;;;5104095;28;20040;-72
2022/11/04 11:57:22;;;;;;;14.73;7.25;;;;;;;;;;5107896;28;20456;-71
2022/11/04 11:59:50;;;;;;;11.63;6.90;;;;;;;;;;5103516;28;20131;-72
2022/11/04 12:02:33;;;;;;;11.20;6.40;;;;;;;;;;5111069;28;20082;-73
2022/11/04 12:05:00;;;;;;;11.35;6.95;;;;;;;;;;5109774;28;20431;-71
2022/11/04 12:07:29;;;;;;;11.95;7.80;;;;;;;;;;5109472;28;20094;-72
2022/11/04 12:09:58;;;;;;;9.73;6.90;;;;;;;;;;5111282;28;20046;-71
2022/11/04 12:12:48;;;;;;;11.45;6.90;;;;;;;;;;5110970;28;20135;-71
2022/11/04 12:15:17;;;;;;;12.60;6.60;;;;;;;;;;5105429;28;20486;-72
2022/11/04 12:17:46;;;;;;;9.77;5.70;;;;;;;;;;5112110;28;20039;-72
2022/11/04 12:20:31;;;;;;;9.68;4.35;;;;;;;;;;5109836;28;20043;-72
2022/11/04 12:22:57;;;;;;;9.55;3.97;;;;;;;;;;5072892;28;20122;-72
2022/11/04 12:25:32;;;;;;;11.60;4.63;;;;;;;;;;5106714;28;20126;-71
2022/11/04 12:28:05;;;;;;;9.82;4.32;;;;;;;;;;5092095;28;20168;-72
2022/11/04 12:30:34;;;;;;;9.63;4.60;;;;;;;;;;5102449;28;20055;-72
2022/11/04 12:33:19;;;;;;;10.93;4.97;;;;;;;;;;5112646;28;20035;-72
2022/11/04 12:35:51;;;;;;;8.88;5.07;;;;;;;;;;5111724;28;20043;-72
2022/11/04 12:38:25;;;;;;;10.23;3.97;;;;;;;;;;5111122;28;20046;-72
2022/11/04 12:41:10;;;;;;;7.60;3.28;;;;;;;;;;5111171;27;20042;-72
2022/11/04 12:43:36;;;;;;;9.20;2.83;;;;;;;;;;5110804;28;20485;-71
2022/11/04 12:46:05;;;;;;;8.50;3.17;;;;;;;;;;5111964;28;20184;-71
2022/11/04 12:48:49;;;;;;;6.30;1.67;;;;;;;;;;5111650;28;20508;-72
2022/11/04 12:51:24;;;;;;;7.63;1.60;;;;;;;;;;5111371;28;20122;-72
2022/11/04 12:54:01;;;;;;;8.27;1.33;;;;;;;;;;5112269;28;20035;-72
2022/11/04 12:56:36;;;;;;;6.90;1.30;;;;;;;;;;5108547;28;20040;-72
2022/11/04 12:59:21;;;;;;;5.57;1.02;;;;;;;;;;5103800;28;20051;-71
2022/11/04 13:01:49;;;;;;;8.23;1.35;;;;;;;;;;5093874;28;20090;-72
2022/11/04 13:04:34;;;;;;;6.57;1.55;;;;;;;;;;5111822;28;20051;-72
2022/11/04 13:07:21;;;;;;;7.97;1.25;;;;;;;;;;5103693;28;20047;-72
2022/11/04 13:09:55;;;;;;;7.65;1.20;;;;;;;;;;5109058;28;20065;-71
2022/11/04 13:12:25;;;;;;;5.03;0.98;;;;;;;;;;5111156;28;20048;-72
2022/11/04 13:14:58;;;;;;;5.03;0.70;;;;;;;;;;5103732;28;20040;-72
2022/11/04 13:17:32;;;;;;;4.47;1.08;;;;;;;;;;5103278;28;20480;-71
2022/11/04 13:20:02;;;;;;;4.97;1.02;;;;;;;;;;5108827;28;20047;-71
2022/11/04 13:22:31;;;;;;;4.87;1.03;;;;;;;;;;5112234;28;20103;-72
2022/11/04 13:25:05;;;;;;;5.68;1.10;;;;;;;;;;5114747;28;20043;-71
2022/11/04 13:27:35;;;;;;;5.20;1.00;;;;;;;;;;5110441;28;20113;-71
2022/11/04 13:30:26;;;;;;;5.18;1.05;;;;;;;;;;5100256;28;20378;-72
2022/11/04 13:33:04;;;;;;;5.15;1.10;;;;;;;;;;5112348;28;20048;-71
2022/11/04 13:35:40;;;;;;;5.05;0.90;;;;;;;;;;5097806;28;20051;-72
2022/11/04 13:38:18;;;;;;;4.80;1.00;;;;;;;;;;5103821;28;20056;-72
2022/11/04 13:40:44;;;;;;;5.03;0.90;;;;;;;;;;5114734;28;20117;-72
2022/11/04 13:43:38;;;;;;;5.75;1.02;;;;;;;;;;5114413;28;20039;-72
2022/11/04 13:46:10;;;;;;;5.35;0.95;;;;;;;;;;5097785;28;20474;-71
2022/11/04 13:48:40;;;;;;;4.72;1.00;;;;;;;;;;5113550;28;20499;-71
2022/11/04 13:51:09;;;;;;;5.57;1.05;;;;;;;;;;5095753;28;20054;-71
2022/11/04 13:53:55;;;;;;;4.50;0.75;;;;;;;;;;5114324;28;20059;-73
2022/11/04 13:56:29;;;;;;;4.30;0.90;;;;;;;;;;5110950;28;20492;-72
2022/11/04 13:58:57;;;;;;;7.35;1.08;;;;;;;;;;5109703;28;20496;-72
2022/11/04 14:01:23;;;;;;;5.30;0.90;;;;;;;;;;5106004;28;20048;-71
2022/11/04 14:04:18;;;;;;;8.20;1.30;;;;;;;;;;5091020;28;20059;-71
2022/11/04 14:06:46;;;;;;;4.63;0.90;;;;;;;;;;5105646;28;20184;-71
2022/11/04 14:09:31;;;;;;;6.53;1.40;;;;;;;;;;5113697;28;20042;-71
2022/11/04 14:12:12;;;;;;;7.85;1.33;;;;;;;;;;5114466;28;20045;-72
2022/11/04 14:14:42;;;;;;;5.65;1.02;;;;;;;;;;5114388;28;20095;-71
2022/11/04 14:17:27;;;;;;;6.32;1.30;;;;;;;;;;5115106;28;20056;-71
2022/11/04 14:19:57;;;;;;;7.70;1.20;;;;;;;;;;5114161;28;20830;-71
2022/11/04 14:22:42;;;;;;;5.75;1.60;;;;;;;;;;5113013;28;20051;-71
2022/11/04 14:25:38;;;;;;;6.05;1.50;;;;;;;;;;5095839;28;20451;-71
2022/11/04 14:28:08;;;;;;;5.82;1.38;;;;;;;;;;5097138;28;20056;-71
2022/11/04 14:30:43;;;;;;;7.57;1.75;;;;;;;;;;5114201;28;20043;-71
2022/11/04 14:33:23;;;;;;;6.55;1.50;;;;;;;;;;5114458;28;20043;-71
2022/11/04 14:35:51;;;;;;;9.70;1.80;;;;;;;;;;5113676;28;20122;-71
2022/11/04 14:38:28;;;;;;;7.55;1.60;;;;;;;;;;5112752;28;20043;-72
2022/11/04 14:41:13;;;;;;;7.72;1.70;;;;;;;;;;5111988;28;20457;-72
2022/11/04 14:43:41;;;;;;;7.20;1.48;;;;;;;;;;5108303;28;20126;-72
2022/11/04 14:46:08;;;;;;;8.73;1.50;;;;;;;;;;5113074;28;20047;-71
2022/11/04 14:48:34;;;;;;;6.10;1.88;;;;;;;;;;5113009;28;20540;-72
2022/11/04 14:51:00;;;;;;;7.70;1.90;;;;;;;;;;5108753;28;20043;-71
2022/11/04 14:53:34;;;;;;;7.80;1.73;;;;;;;;;;5079016;28;20126;-72
2022/11/04 14:56:04;;;;;;;6.97;1.88;;;;;;;;;;5114543;28;20054;-73
2022/11/04 14:58:30;;;;;;;6.93;1.70;;;;;;;;;;5114420;28;20047;-71
2022/11/04 15:00:59;;;;;;;14.25;1.80;;;;;;;;;;5112787;28;20063;-70
2022/11/04 15:03:26;;;;;;;9.70;1.90;;;;;;;;;;5111534;28;20520;-71
2022/11/04 15:05:53;;;;;;;6.93;1.80;;;;;;;;;;5089972;28;20039;-71
2022/11/04 15:08:38;;;;;;;9.13;1.40;;;;;;;;;;5102363;28;20129;-72
2022/11/04 15:11:04;;;;;;;6.40;1.70;;;;;;;;;;5103999;28;20052;-73
2022/11/04 15:13:37;;;;;;;7.97;2.17;;;;;;;;;;5111157;28;20055;-72
2022/11/04 15:16:21;;;;;;;12.90;4.20;;;;;;;;;;5108651;28;20631;-72
2022/11/04 15:18:47;;;;;;;8.95;3.10;;;;;;;;;;5110851;28;20461;-72
2022/11/04 15:21:14;;;;;;;8.75;2.05;;;;;;;;;;5112451;28;20044;-72
2022/11/04 15:23:42;;;;;;;8.38;2.40;;;;;;;;;;5112006;28;20050;-72
2022/11/04 15:26:35;;;;;;;13.50;2.08;;;;;;;;;;5112999;28;20044;-72
2022/11/04 15:29:06;;;;;;;10.15;2.35;;;;;;;;;;5106059;28;20528;-72